createdAt,value
2023-03-29T00:00:37.578Z,1.00
2023-03-29T00:03:05.886Z,1.00
2023-03-29T00:05:36.061Z,1.00
2023-03-29T00:08:05.499Z,1.00
2023-03-29T00:10:34.312Z,1.00
2023-03-29T00:13:03.330Z,14.70
2023-03-29T00:15:31.411Z,35.10
2023-03-29T00:18:01.830Z,53.00
2023-03-29T00:20:29.875Z,60.70
2023-03-29T00:22:57.940Z,75.60
2023-03-29T00:25:27.303Z,82.60
2023-03-29T00:27:55.323Z,91.10
2023-03-29T00:30:23.330Z,99.90
2023-03-29T00:32:51.833Z,99.90
2023-03-29T00:35:20.181Z,99.90
2023-03-29T00:37:50.792Z,99.90
2023-03-29T00:40:20.541Z,99.90
2023-03-29T00:42:50.123Z,99.90
2023-03-29T00:45:20.087Z,99.90
2023-03-29T00:47:50.690Z,99.90
2023-03-29T00:50:25.727Z,99.90
2023-03-29T00:53:00.102Z,99.90
2023-03-29T00:55:30.487Z,99.90
2023-03-29T00:58:01.606Z,99.90
2023-03-29T01:00:33.030Z,99.90
2023-03-29T01:03:03.513Z,99.90
2023-03-29T01:05:35.299Z,99.90
2023-03-29T01:08:06.637Z,99.90
2023-03-29T01:10:41.431Z,99.90
2023-03-29T01:13:14.110Z,99.90
2023-03-29T01:15:45.010Z,99.90
2023-03-29T01:18:13.893Z,99.90
2023-03-29T01:20:57.839Z,99.90
2023-03-29T01:23:46.898Z,99.90
2023-03-29T01:26:23.328Z,99.90
2023-03-29T01:28:58.354Z,99.90
2023-03-29T01:31:30.361Z,99.90
2023-03-29T01:34:03.410Z,99.90
2023-03-29T01:36:38.937Z,99.90
2023-03-29T01:39:10.824Z,99.90
2023-03-29T01:41:47.373Z,99.90
2023-03-29T01:44:20.654Z,99.90
2023-03-29T01:46:53.359Z,99.90
2023-03-29T01:49:29.795Z,99.90
2023-03-29T01:52:02.386Z,99.90
2023-03-29T01:54:36.603Z,99.90
2023-03-29T01:57:05.983Z,99.90
2023-03-29T01:59:38.420Z,99.90
2023-03-29T02:02:11.541Z,99.90
2023-03-29T02:04:45.810Z,99.90
2023-03-29T02:07:14.500Z,99.90
2023-03-29T02:09:44.798Z,99.90
2023-03-29T02:12:14.595Z,99.90
2023-03-29T02:14:44.008Z,99.90
2023-03-29T02:17:20.233Z,99.90
2023-03-29T02:19:51.195Z,99.90
2023-03-29T02:22:25.392Z,99.90
2023-03-29T02:24:59.154Z,99.90
2023-03-29T02:27:29.099Z,99.90
2023-03-29T02:29:59.231Z,99.90
2023-03-29T02:32:35.438Z,99.90
2023-03-29T02:35:08.190Z,99.90
2023-03-29T02:37:40.957Z,99.90
2023-03-29T02:40:12.631Z,99.90
2023-03-29T02:42:42.088Z,99.90
2023-03-29T02:45:14.075Z,99.90
2023-03-29T02:47:46.311Z,99.90
2023-03-29T02:50:14.632Z,99.90
2023-03-29T02:52:47.095Z,99.90
2023-03-29T02:55:18.722Z,99.90
2023-03-29T02:57:46.745Z,1.00
2023-03-29T03:00:20.143Z,1.00
2023-03-29T03:02:50.691Z,1.00
2023-03-29T03:05:21.728Z,1.00
2023-03-29T03:07:49.700Z,1.00
2023-03-29T03:10:19.146Z,1.00
2023-03-29T03:12:47.122Z,1.00
2023-03-29T03:15:16.707Z,1.00
2023-03-29T03:17:46.535Z,1.00
2023-03-29T03:20:16.911Z,1.00
2023-03-29T03:22:48.930Z,1.00
2023-03-29T03:25:19.412Z,1.00
2023-03-29T03:27:47.496Z,1.00
2023-03-29T03:30:18.488Z,1.00
2023-03-29T03:32:46.546Z,1.00
2023-03-29T03:35:14.663Z,1.00
2023-03-29T03:37:42.892Z,1.00
2023-03-29T03:40:13.542Z,1.00
2023-03-29T03:42:42.143Z,1.00
2023-03-29T03:45:12.240Z,1.00
2023-03-29T03:47:42.269Z,1.00
2023-03-29T03:50:11.538Z,1.00
2023-03-29T03:52:39.638Z,1.00
2023-03-29T03:55:08.244Z,1.00
2023-03-29T03:57:38.295Z,1.00
2023-03-29T04:00:19.358Z,1.00
2023-03-29T04:02:50.008Z,1.00
2023-03-29T04:05:18.467Z,1.00
2023-03-29T04:07:46.596Z,1.00
2023-03-29T04:10:15.686Z,1.00
2023-03-29T04:12:43.911Z,1.00
2023-03-29T04:15:12.199Z,1.00
2023-03-29T04:17:40.456Z,1.00
2023-03-29T04:20:12.596Z,1.00
2023-03-29T04:22:41.166Z,1.00
2023-03-29T04:25:10.418Z,1.00
2023-03-29T04:27:38.565Z,1.00
2023-03-29T04:30:11.795Z,1.00
2023-03-29T04:32:40.010Z,1.00
2023-03-29T04:35:10.573Z,1.00
2023-03-29T04:37:43.287Z,1.00
2023-03-29T04:40:14.171Z,1.00
2023-03-29T04:42:44.389Z,1.00
2023-03-29T04:45:16.464Z,1.00
2023-03-29T04:47:45.216Z,1.00
2023-03-29T04:50:15.700Z,1.00
2023-03-29T04:52:45.518Z,1.00
2023-03-29T04:55:13.583Z,1.00
2023-03-29T04:57:41.627Z,1.00
2023-03-29T05:00:15.110Z,99.90
2023-03-29T05:02:44.111Z,99.90
2023-03-29T05:05:14.188Z,99.90
2023-03-29T05:07:42.196Z,99.90
2023-03-29T05:10:10.740Z,99.90
2023-03-29T05:12:38.757Z,99.90
2023-03-29T05:15:08.125Z,99.90
2023-03-29T05:17:36.521Z,99.90
2023-03-29T05:20:09.453Z,99.90
2023-03-29T05:22:40.219Z,99.90
2023-03-29T05:25:10.893Z,99.90
2023-03-29T05:27:38.865Z,99.90
2023-03-29T05:30:08.861Z,99.90
2023-03-29T05:32:38.309Z,99.90
2023-03-29T05:35:06.815Z,99.90
2023-03-29T05:37:35.064Z,99.90
2023-03-29T05:40:10.030Z,99.90
2023-03-29T05:42:38.644Z,99.90
2023-03-29T05:45:07.707Z,99.90
2023-03-29T05:47:36.103Z,99.90
2023-03-29T05:50:08.922Z,99.90
2023-03-29T05:52:37.936Z,99.90
2023-03-29T05:55:08.742Z,99.90
2023-03-29T05:57:37.564Z,99.90
2023-03-29T06:00:14.740Z,99.90
2023-03-29T06:02:43.804Z,99.90
2023-03-29T06:05:11.863Z,99.90
2023-03-29T06:07:39.851Z,1.00
2023-03-29T06:10:10.589Z,99.20
2023-03-29T06:12:38.600Z,99.90
2023-03-29T06:15:08.461Z,1.00
2023-03-29T06:17:40.022Z,99.90
2023-03-29T06:20:11.004Z,1.00
2023-03-29T06:22:39.270Z,99.90
2023-03-29T06:25:10.974Z,1.00
2023-03-29T06:27:39.198Z,99.90
2023-03-29T06:30:08.462Z,1.00
2023-03-29T06:32:36.770Z,99.90
2023-03-29T06:35:05.342Z,99.90
2023-03-29T06:37:33.899Z,34.90
2023-03-29T06:40:02.473Z,1.00
2023-03-29T06:42:32.474Z,1.00
2023-03-29T06:45:00.521Z,99.90
2023-03-29T06:47:30.914Z,99.90
2023-03-29T06:49:59.268Z,99.90
2023-03-29T06:52:27.225Z,99.90
2023-03-29T06:54:57.957Z,33.70
2023-03-29T06:57:26.115Z,1.00
2023-03-29T06:59:55.637Z,1.00
2023-03-29T07:02:23.714Z,1.00
2023-03-29T07:04:51.785Z,1.00
2023-03-29T07:07:22.644Z,99.90
2023-03-29T07:09:54.032Z,99.90
2023-03-29T07:12:22.961Z,99.90
2023-03-29T07:14:50.942Z,99.90
2023-03-29T07:17:20.271Z,99.90
2023-03-29T07:19:51.139Z,99.90
2023-03-29T07:22:19.400Z,99.90
2023-03-29T07:24:47.374Z,90.10
2023-03-29T07:27:16.253Z,20.00
2023-03-29T07:29:44.234Z,1.00
2023-03-29T07:32:12.370Z,1.00
2023-03-29T07:34:44.609Z,1.00
2023-03-29T07:37:12.663Z,1.00
2023-03-29T07:39:40.715Z,1.00
2023-03-29T07:42:09.004Z,1.00
2023-03-29T07:44:37.391Z,1.00
2023-03-29T07:47:05.508Z,1.00
2023-03-29T07:49:33.631Z,1.00
2023-03-29T07:52:03.713Z,99.90
2023-03-29T07:54:32.482Z,99.90
2023-03-29T07:57:03.604Z,99.90
2023-03-29T07:59:31.646Z,99.90
2023-03-29T08:01:59.648Z,99.90
2023-03-29T08:04:27.699Z,99.90
2023-03-29T08:06:55.789Z,99.90
2023-03-29T08:09:25.955Z,99.90
2023-03-29T08:11:53.987Z,99.90
2023-03-29T08:14:24.763Z,99.90
2023-03-29T08:16:53.057Z,99.90
2023-03-29T08:19:21.235Z,99.90
2023-03-29T08:21:49.380Z,99.90
2023-03-29T08:24:19.787Z,99.90
2023-03-29T08:26:50.333Z,99.90
2023-03-29T08:29:18.329Z,99.90
2023-03-29T08:31:46.343Z,99.90
2023-03-29T08:34:14.337Z,99.90
2023-03-29T08:36:42.367Z,99.90
2023-03-29T08:39:13.628Z,99.90
2023-03-29T08:41:54.736Z,99.90
2023-03-29T08:44:37.911Z,99.90
2023-03-29T08:47:12.606Z,99.90
2023-03-29T08:49:42.659Z,97.80
2023-03-29T08:52:20.954Z,90.40
2023-03-29T08:54:51.701Z,73.30
2023-03-29T08:57:25.934Z,60.00
2023-03-29T08:59:56.615Z,55.60
2023-03-29T09:02:27.059Z,49.40
2023-03-29T09:05:00.012Z,38.30
2023-03-29T09:07:28.446Z,26.50
2023-03-29T09:09:57.043Z,16.40
2023-03-29T09:12:42.256Z,7.00
2023-03-29T09:15:16.635Z,1.00
2023-03-29T09:17:53.653Z,1.00
2023-03-29T09:20:39.748Z,1.00
2023-03-29T09:23:40.039Z,1.00
2023-03-29T09:26:18.173Z,1.00
2023-03-29T09:28:57.247Z,1.00
2023-03-29T09:31:30.740Z,1.00
2023-03-29T09:34:00.593Z,1.00
2023-03-29T09:36:37.036Z,1.00
2023-03-29T09:39:06.166Z,1.00
2023-03-29T09:41:37.459Z,1.00
2023-03-29T09:44:20.752Z,1.00
2023-03-29T09:47:01.907Z,1.00
2023-03-29T09:49:34.026Z,1.00
2023-03-29T09:52:06.699Z,1.00
2023-03-29T09:54:34.698Z,1.00
2023-03-29T09:57:03.235Z,1.00
2023-03-29T09:59:32.701Z,1.00
2023-03-29T10:02:08.654Z,1.00
2023-03-29T10:04:36.802Z,1.00
2023-03-29T10:07:05.706Z,1.00
2023-03-29T10:09:34.237Z,1.00
2023-03-29T10:12:06.701Z,1.00
2023-03-29T10:14:39.201Z,1.00
2023-03-29T10:17:17.763Z,1.00
2023-03-29T10:19:50.923Z,1.00
2023-03-29T10:22:22.905Z,1.00
2023-03-29T10:24:52.601Z,1.00
2023-03-29T10:27:23.241Z,1.00
2023-03-29T10:29:55.975Z,1.00
2023-03-29T10:32:31.456Z,1.00
2023-03-29T10:35:03.823Z,1.00
2023-03-29T10:37:37.113Z,1.00
2023-03-29T10:40:06.636Z,1.00
2023-03-29T10:42:34.591Z,1.00
2023-03-29T10:45:04.130Z,1.00
2023-03-29T10:47:34.348Z,1.00
2023-03-29T10:50:06.693Z,1.00
2023-03-29T10:52:35.699Z,1.00
2023-03-29T10:55:03.861Z,1.00
2023-03-29T10:57:41.815Z,1.00
2023-03-29T11:00:18.719Z,1.00
2023-03-29T11:02:59.073Z,1.00
2023-03-29T11:05:33.262Z,1.00
2023-03-29T11:08:19.686Z,1.00
2023-03-29T11:10:58.416Z,1.00
2023-03-29T11:13:35.852Z,1.00
2023-03-29T11:16:20.028Z,1.00
2023-03-29T11:19:18.085Z,1.00
2023-03-29T11:21:53.278Z,1.00
2023-03-29T11:24:49.745Z,99.90
2023-03-29T11:27:27.367Z,99.90
2023-03-29T11:30:06.357Z,99.90
2023-03-29T11:32:46.243Z,99.90
2023-03-29T11:35:33.312Z,99.90
2023-03-29T11:38:06.769Z,99.90
2023-03-29T11:40:47.843Z,99.90
2023-03-29T11:43:21.444Z,99.90
2023-03-29T11:45:53.638Z,99.90
2023-03-29T11:48:34.750Z,99.90
2023-03-29T11:51:12.154Z,99.90
2023-03-29T11:53:47.391Z,99.90
2023-03-29T11:56:21.118Z,99.90
2023-03-29T11:58:58.768Z,99.90
2023-03-29T12:01:36.620Z,99.90
2023-03-29T12:04:12.249Z,99.90
2023-03-29T12:06:47.821Z,99.90
2023-03-29T12:09:26.524Z,99.90
2023-03-29T12:12:03.008Z,99.90
2023-03-29T12:14:44.369Z,99.90
2023-03-29T12:17:17.837Z,99.90
2023-03-29T12:19:54.440Z,99.90
2023-03-29T12:22:25.449Z,99.90
2023-03-29T12:24:58.423Z,99.90
2023-03-29T12:27:30.979Z,99.90
2023-03-29T12:30:25.025Z,99.90
2023-03-29T12:33:33.930Z,99.90
2023-03-29T12:36:17.397Z,99.90
2023-03-29T12:38:50.797Z,99.90
2023-03-29T12:41:21.678Z,99.90
2023-03-29T12:43:50.430Z,99.90
2023-03-29T12:46:21.237Z,99.90
2023-03-29T12:48:52.292Z,99.90
2023-03-29T12:51:28.312Z,99.90
2023-03-29T12:54:03.284Z,99.90
2023-03-29T12:56:42.263Z,99.90
2023-03-29T12:59:27.023Z,99.90
2023-03-29T13:02:44.501Z,99.90
2023-03-29T13:05:28.511Z,99.90
2023-03-29T13:07:57.893Z,99.90
2023-03-29T13:10:42.377Z,99.90
2023-03-29T13:13:16.540Z,99.90
2023-03-29T13:15:46.761Z,99.90
2023-03-29T13:18:41.373Z,99.90
2023-03-29T13:21:18.711Z,99.90
2023-03-29T13:23:59.806Z,99.90
2023-03-29T13:26:44.354Z,99.90
2023-03-29T13:29:35.249Z,99.90
2023-03-29T13:32:12.171Z,99.90
2023-03-29T13:34:47.271Z,99.90
2023-03-29T13:37:30.201Z,99.90
2023-03-29T13:40:00.184Z,99.90
2023-03-29T13:42:42.409Z,99.90
2023-03-29T13:45:17.597Z,99.90
2023-03-29T13:47:58.666Z,99.90
2023-03-29T13:50:37.252Z,99.90
2023-03-29T13:53:11.799Z,99.90
2023-03-29T13:55:48.196Z,99.90
2023-03-29T13:58:27.627Z,99.90
2023-03-29T14:01:02.303Z,99.90
2023-03-29T14:03:33.786Z,99.90
2023-03-29T14:06:04.846Z,99.90
2023-03-29T14:08:37.999Z,99.90
2023-03-29T14:11:13.158Z,99.90
2023-03-29T14:13:43.878Z,99.90
2023-03-29T14:16:13.776Z,99.90
2023-03-29T14:18:44.563Z,99.90
2023-03-29T14:21:14.886Z,99.90
2023-03-29T14:23:46.123Z,99.90
2023-03-29T14:26:21.979Z,99.90
2023-03-29T14:28:52.116Z,99.90
2023-03-29T14:31:20.935Z,99.90
2023-03-29T14:33:53.730Z,99.90
2023-03-29T14:36:25.076Z,99.90
2023-03-29T14:38:57.859Z,99.90
2023-03-29T14:41:31.617Z,99.90
2023-03-29T14:44:00.988Z,99.90
2023-03-29T14:46:29.229Z,99.90
2023-03-29T14:49:02.168Z,99.90
2023-03-29T14:51:31.244Z,99.90
2023-03-29T14:53:59.902Z,99.90
2023-03-29T14:56:30.101Z,99.90
2023-03-29T14:58:58.560Z,99.90
2023-03-29T15:01:27.907Z,99.90
2023-03-29T15:04:04.999Z,99.90
2023-03-29T15:06:39.182Z,99.90
2023-03-29T15:09:07.501Z,99.90
2023-03-29T15:11:39.914Z,99.90
2023-03-29T15:14:10.519Z,99.90
2023-03-29T15:16:41.660Z,99.90
2023-03-29T15:19:16.974Z,99.90
2023-03-29T15:21:47.829Z,99.90
2023-03-29T15:24:23.054Z,99.90
2023-03-29T15:27:05.879Z,99.90
2023-03-29T15:29:41.761Z,99.90
2023-03-29T15:32:11.694Z,99.90
2023-03-29T15:34:42.131Z,99.90
2023-03-29T15:37:13.578Z,99.90
2023-03-29T15:39:44.940Z,99.90
2023-03-29T15:42:16.607Z,99.90
2023-03-29T15:44:44.762Z,99.90
2023-03-29T15:47:15.110Z,99.90
2023-03-29T15:49:43.134Z,99.90
2023-03-29T15:52:11.140Z,99.90
2023-03-29T15:54:39.121Z,99.90
2023-03-29T15:57:08.910Z,99.90
2023-03-29T15:59:38.397Z,99.90
2023-03-29T16:02:07.789Z,99.90
2023-03-29T16:04:35.815Z,99.90
2023-03-29T16:07:04.168Z,99.90
2023-03-29T16:09:32.335Z,99.90
2023-03-29T16:12:03.946Z,99.90
2023-03-29T16:14:33.174Z,99.90
2023-03-29T16:17:04.715Z,99.90
2023-03-29T16:19:33.983Z,99.90
2023-03-29T16:22:05.119Z,99.90
2023-03-29T16:24:34.313Z,99.90
2023-03-29T16:27:03.091Z,99.90
2023-03-29T16:29:31.670Z,99.90
2023-03-29T16:31:59.793Z,99.90
2023-03-29T16:34:29.990Z,99.90
2023-03-29T16:36:58.089Z,99.90
2023-03-29T16:39:26.208Z,99.90
2023-03-29T16:41:54.344Z,99.90
2023-03-29T16:44:24.600Z,99.90
2023-03-29T16:46:53.850Z,99.90
2023-03-29T16:49:25.069Z,99.90
2023-03-29T16:51:54.459Z,99.90
2023-03-29T16:54:26.081Z,1.00
2023-03-29T16:56:54.613Z,1.00
2023-03-29T16:59:22.897Z,1.00
2023-03-29T17:01:51.027Z,1.00
2023-03-29T17:04:19.258Z,1.00
2023-03-29T17:06:47.377Z,1.00
2023-03-29T17:09:17.554Z,1.00
2023-03-29T17:11:45.767Z,1.00
2023-03-29T17:14:13.796Z,1.00
2023-03-29T17:16:41.844Z,1.00
2023-03-29T17:19:09.870Z,1.00
2023-03-29T17:21:37.901Z,1.00
2023-03-29T17:24:06.213Z,1.00
2023-03-29T17:26:35.906Z,1.00
2023-03-29T17:29:04.148Z,1.00
2023-03-29T17:31:34.793Z,1.00
2023-03-29T17:34:03.437Z,1.00
2023-03-29T17:36:33.715Z,1.00
2023-03-29T17:39:02.811Z,1.00
2023-03-29T17:41:31.430Z,1.00
2023-03-29T17:44:02.823Z,14.80
2023-03-29T17:46:33.993Z,56.90
2023-03-29T17:49:04.449Z,99.00
2023-03-29T17:51:32.487Z,99.90
2023-03-29T17:54:00.542Z,99.90
2023-03-29T17:56:31.960Z,99.90
2023-03-29T17:59:01.470Z,99.90
2023-03-29T18:01:29.590Z,99.90
2023-03-29T18:03:58.166Z,99.90
2023-03-29T18:06:26.215Z,99.90
2023-03-29T18:09:01.333Z,99.90
2023-03-29T18:11:32.745Z,99.90
2023-03-29T18:14:21.215Z,99.90
2023-03-29T18:16:49.635Z,99.90
2023-03-29T18:19:23.788Z,1.00
2023-03-29T18:21:54.786Z,1.00
2023-03-29T18:24:25.245Z,1.00
2023-03-29T18:26:53.457Z,1.00
2023-03-29T18:29:35.260Z,1.00
2023-03-29T18:32:07.158Z,1.00
2023-03-29T18:34:35.694Z,1.00
2023-03-29T18:37:04.092Z,1.00
2023-03-29T18:39:34.697Z,1.00
2023-03-29T18:42:03.186Z,1.00
2023-03-29T18:44:33.081Z,16.20
2023-03-29T18:47:01.610Z,60.50
2023-03-29T18:49:29.649Z,99.90
2023-03-29T18:52:00.334Z,99.90
2023-03-29T18:54:33.064Z,99.90
2023-03-29T18:57:02.672Z,99.90
2023-03-29T18:59:36.645Z,99.90
2023-03-29T19:02:05.407Z,99.90
2023-03-29T19:04:33.690Z,99.90
2023-03-29T19:07:02.101Z,1.00
2023-03-29T19:09:33.685Z,1.00
2023-03-29T19:12:06.169Z,31.80
2023-03-29T19:14:35.604Z,99.90
2023-03-29T19:17:03.670Z,99.90
2023-03-29T19:19:31.733Z,99.90
2023-03-29T19:22:00.784Z,99.90
2023-03-29T19:24:30.932Z,1.00
2023-03-29T19:27:01.740Z,99.90
2023-03-29T19:29:30.011Z,99.90
2023-03-29T19:31:59.763Z,99.90
2023-03-29T19:34:29.181Z,99.90
2023-03-29T19:36:58.462Z,99.90
2023-03-29T19:39:29.283Z,99.90
2023-03-29T19:41:57.742Z,99.90
2023-03-29T19:44:28.012Z,1.00
2023-03-29T19:46:56.961Z,1.00
2023-03-29T19:49:26.480Z,1.00
2023-03-29T19:51:55.516Z,21.70
2023-03-29T19:54:26.134Z,82.00
2023-03-29T19:56:59.062Z,99.90
2023-03-29T19:59:27.933Z,99.90
2023-03-29T20:01:56.806Z,99.90
2023-03-29T20:04:28.773Z,99.90
2023-03-29T20:06:57.504Z,99.90
2023-03-29T20:09:25.700Z,99.90
2023-03-29T20:11:54.024Z,99.90
2023-03-29T20:14:23.949Z,99.90
2023-03-29T20:16:52.303Z,1.00
2023-03-29T20:19:23.985Z,1.00
2023-03-29T20:21:55.056Z,1.00
2023-03-29T20:24:23.513Z,45.00
2023-03-29T20:26:51.812Z,99.90
2023-03-29T20:29:20.257Z,99.90
2023-03-29T20:31:48.729Z,99.90
2023-03-29T20:34:18.147Z,1.00
2023-03-29T20:36:46.685Z,1.00
2023-03-29T20:39:18.624Z,61.20
2023-03-29T20:41:47.794Z,99.90
2023-03-29T20:44:18.445Z,99.90
2023-03-29T20:46:54.372Z,99.90
2023-03-29T20:49:26.561Z,99.90
2023-03-29T20:51:58.744Z,99.90
2023-03-29T20:54:28.200Z,1.00
2023-03-29T20:56:57.740Z,1.00
2023-03-29T20:59:27.531Z,1.00
2023-03-29T21:01:55.579Z,19.30
2023-03-29T21:04:26.584Z,77.00
2023-03-29T21:06:56.117Z,99.90
2023-03-29T21:09:25.446Z,99.90
2023-03-29T21:11:56.881Z,99.90
2023-03-29T21:14:26.675Z,99.90
2023-03-29T21:16:54.662Z,99.90
2023-03-29T21:19:25.655Z,99.90
2023-03-29T21:21:56.986Z,99.90
2023-03-29T21:24:24.968Z,99.90
2023-03-29T21:26:54.342Z,99.90
2023-03-29T21:29:22.679Z,99.90
2023-03-29T21:31:50.720Z,1.00
2023-03-29T21:34:18.780Z,1.00
2023-03-29T21:36:46.802Z,1.00
2023-03-29T21:39:14.832Z,1.00
2023-03-29T21:41:43.059Z,1.00
2023-03-29T21:44:12.750Z,1.00
2023-03-29T21:46:44.467Z,1.00
2023-03-29T21:49:12.516Z,1.00
2023-03-29T21:51:40.559Z,29.10
2023-03-29T21:54:08.524Z,54.70
2023-03-29T21:56:39.568Z,72.60
2023-03-29T21:59:07.760Z,96.90
2023-03-29T22:01:37.100Z,99.90
2023-03-29T22:04:05.231Z,99.90
2023-03-29T22:06:33.428Z,99.90
2023-03-29T22:09:03.122Z,99.90
2023-03-29T22:11:32.214Z,99.90
2023-03-29T22:14:02.146Z,99.90
2023-03-29T22:16:31.329Z,99.90
2023-03-29T22:19:00.742Z,99.90
2023-03-29T22:21:31.748Z,99.90
2023-03-29T22:24:01.498Z,99.90
2023-03-29T22:26:31.475Z,99.90
2023-03-29T22:29:01.073Z,99.90
2023-03-29T22:31:30.660Z,99.90
2023-03-29T22:34:01.966Z,99.90
2023-03-29T22:36:31.672Z,99.90
2023-03-29T22:38:59.849Z,99.90
2023-03-29T22:41:28.717Z,99.90
2023-03-29T22:44:01.936Z,99.90
2023-03-29T22:46:30.431Z,1.00
2023-03-29T22:48:59.943Z,1.00
2023-03-29T22:51:28.179Z,1.00
2023-03-29T22:53:56.533Z,1.00
2023-03-29T22:56:24.785Z,1.00
2023-03-29T22:58:53.052Z,1.00
2023-03-29T23:01:21.111Z,1.00
2023-03-29T23:03:49.203Z,1.00
2023-03-29T23:06:18.556Z,1.00
2023-03-29T23:08:46.586Z,1.00
2023-03-29T23:11:14.562Z,1.00
2023-03-29T23:13:42.914Z,25.40
2023-03-29T23:16:11.123Z,20.00
2023-03-29T23:18:39.173Z,12.80
2023-03-29T23:21:08.885Z,29.10
2023-03-29T23:23:38.549Z,14.50
2023-03-29T23:26:08.355Z,17.50
2023-03-29T23:28:36.458Z,4.10
2023-03-29T23:31:06.517Z,1.00
2023-03-29T23:33:36.126Z,8.20
2023-03-29T23:36:06.322Z,17.70
2023-03-29T23:38:35.306Z,49.50
2023-03-29T23:41:08.351Z,36.30
2023-03-29T23:43:40.281Z,56.40
2023-03-29T23:46:10.400Z,83.40
2023-03-29T23:48:39.191Z,37.20
2023-03-29T23:51:09.837Z,58.70
2023-03-29T23:53:38.189Z,33.10
2023-03-29T23:56:09.102Z,67.40
2023-03-29T23:58:38.817Z,60.30
